Bracebridge, Canada
Current Conditions -  °F | °C
As of 2:00 AM on Friday 19 Dec 2014 (Local Time) from CYQA Reporting Station
Scattered Clouds Scattered Clouds  
Wind Chill:   Ceiling: Unl
Heat Index: 14°   Visibility: 9mi
Dew Point: 12°   Wind: 9mph
Humidity: 93%   Direction: 330°NNW
Pressure: 30.09"   Gusts: NA
Location:  45.05°N, 79.32°W
Report Text: CYQA 190700Z AUTO 33008KT 9SM SCT014 M10/M11 A3009 RMK SLP209
Loading
Personal Weather Stations






























Interactive Weather Map New forecast layout! Learn more

10-Day Weather Forecast

Advertisements
Track Severe Weather on mobile